sensor_id;sensor_type;location;lat;lon;timestamp;P1;durP1;ratioP1;P2;durP2;ratioP2
48516;SDS011;34310;51.904;4.256;2023-05-10T00:01:10;6.20;;;5.60;;
48516;SDS011;34310;51.904;4.256;2023-05-10T00:03:37;6.32;;;5.45;;
48516;SDS011;34310;51.904;4.256;2023-05-10T00:06:04;5.88;;;5.25;;
48516;SDS011;34310;51.904;4.256;2023-05-10T00:08:32;7.10;;;6.32;;
48516;SDS011;34310;51.904;4.256;2023-05-10T00:10:59;7.38;;;5.93;;
48516;SDS011;34310;51.904;4.256;2023-05-10T00:13:27;6.78;;;5.75;;
48516;SDS011;34310;51.904;4.256;2023-05-10T00:15:54;6.60;;;5.50;;
48516;SDS011;34310;51.904;4.256;2023-05-10T00:18:21;7.35;;;6.10;;
48516;SDS011;34310;51.904;4.256;2023-05-10T00:20:49;6.55;;;5.88;;
48516;SDS011;34310;51.904;4.256;2023-05-10T00:23:16;6.88;;;5.82;;
48516;SDS011;34310;51.904;4.256;2023-05-10T00:25:43;8.13;;;6.43;;
48516;SDS011;34310;51.904;4.256;2023-05-10T00:28:11;9.10;;;5.80;;
48516;SDS011;34310;51.904;4.256;2023-05-10T00:30:38;7.10;;;6.40;;
48516;SDS011;34310;51.904;4.256;2023-05-10T00:33:05;7.88;;;6.55;;
48516;SDS011;34310;51.904;4.256;2023-05-10T00:35:33;6.85;;;5.70;;
48516;SDS011;34310;51.904;4.256;2023-05-10T00:38:00;6.85;;;5.90;;
48516;SDS011;34310;51.904;4.256;2023-05-10T00:40:27;10.43;;;6.65;;
48516;SDS011;34310;51.904;4.256;2023-05-10T00:42:57;7.43;;;6.40;;
48516;SDS011;34310;51.904;4.256;2023-05-10T00:45:25;6.85;;;6.05;;
48516;SDS011;34310;51.904;4.256;2023-05-10T00:47:53;7.90;;;6.18;;
48516;SDS011;34310;51.904;4.256;2023-05-10T00:50:22;6.70;;;6.00;;
48516;SDS011;34310;51.904;4.256;2023-05-10T00:52:50;8.13;;;6.78;;
48516;SDS011;34310;51.904;4.256;2023-05-10T00:55:18;8.02;;;5.95;;
48516;SDS011;34310;51.904;4.256;2023-05-10T00:57:45;7.10;;;5.97;;
48516;SDS011;34310;51.904;4.256;2023-05-10T01:00:14;8.30;;;6.53;;
48516;SDS011;34310;51.904;4.256;2023-05-10T01:02:45;6.90;;;6.07;;
48516;SDS011;34310;51.904;4.256;2023-05-10T01:05:13;8.82;;;6.40;;
48516;SDS011;34310;51.904;4.256;2023-05-10T01:07:41;6.72;;;6.03;;
48516;SDS011;34310;51.904;4.256;2023-05-10T01:10:08;7.65;;;6.00;;
48516;SDS011;34310;51.904;4.256;2023-05-10T01:12:38;6.93;;;6.03;;
48516;SDS011;34310;51.904;4.256;2023-05-10T01:15:08;7.88;;;6.45;;
48516;SDS011;34310;51.904;4.256;2023-05-10T01:17:37;7.55;;;5.93;;
48516;SDS011;34310;51.904;4.256;2023-05-10T01:20:07;7.57;;;5.95;;
48516;SDS011;34310;51.904;4.256;2023-05-10T01:34:01;9.05;;;6.57;;
48516;SDS011;34310;51.904;4.256;2023-05-10T01:36:32;8.65;;;6.38;;
48516;SDS011;34310;51.904;4.256;2023-05-10T01:39:18;8.52;;;6.43;;
48516;SDS011;34310;51.904;4.256;2023-05-10T01:42:20;8.25;;;6.20;;
48516;SDS011;34310;51.904;4.256;2023-05-10T01:50:09;7.32;;;6.03;;
48516;SDS011;34310;51.904;4.256;2023-05-10T01:52:57;7.68;;;5.65;;
48516;SDS011;34310;51.904;4.256;2023-05-10T01:55:29;7.15;;;5.80;;
48516;SDS011;34310;51.904;4.256;2023-05-10T01:58:04;7.60;;;6.05;;
48516;SDS011;34310;51.904;4.256;2023-05-10T02:00:34;7.20;;;6.18;;
48516;SDS011;34310;51.904;4.256;2023-05-10T02:03:06;7.53;;;6.25;;
48516;SDS011;34310;51.904;4.256;2023-05-10T02:05:36;7.93;;;6.68;;
48516;SDS011;34310;51.904;4.256;2023-05-10T02:08:06;7.15;;;5.60;;
48516;SDS011;34310;51.904;4.256;2023-05-10T02:10:34;8.40;;;6.60;;
48516;SDS011;34310;51.904;4.256;2023-05-10T02:13:02;7.88;;;5.93;;
48516;SDS011;34310;51.904;4.256;2023-05-10T02:15:32;6.95;;;6.00;;
48516;SDS011;34310;51.904;4.256;2023-05-10T02:18:01;6.75;;;5.90;;
48516;SDS011;34310;51.904;4.256;2023-05-10T02:20:30;8.48;;;6.00;;
48516;SDS011;34310;51.904;4.256;2023-05-10T02:22:58;9.55;;;6.60;;
48516;SDS011;34310;51.904;4.256;2023-05-10T02:25:28;8.05;;;6.60;;
48516;SDS011;34310;51.904;4.256;2023-05-10T02:27:56;6.50;;;5.88;;
48516;SDS011;34310;51.904;4.256;2023-05-10T02:30:26;7.63;;;6.55;;
48516;SDS011;34310;51.904;4.256;2023-05-10T02:32:55;7.93;;;6.32;;
48516;SDS011;34310;51.904;4.256;2023-05-10T02:35:23;6.75;;;5.80;;
48516;SDS011;34310;51.904;4.256;2023-05-10T02:37:52;6.72;;;5.47;;
48516;SDS011;34310;51.904;4.256;2023-05-10T02:40:20;8.40;;;6.03;;
48516;SDS011;34310;51.904;4.256;2023-05-10T02:42:50;6.63;;;5.93;;
48516;SDS011;34310;51.904;4.256;2023-05-10T02:45:23;7.72;;;6.07;;
48516;SDS011;34310;51.904;4.256;2023-05-10T02:47:54;6.53;;;5.82;;
48516;SDS011;34310;51.904;4.256;2023-05-10T02:50:22;7.32;;;6.18;;
48516;SDS011;34310;51.904;4.256;2023-05-10T02:52:54;7.30;;;5.82;;
48516;SDS011;34310;51.904;4.256;2023-05-10T02:55:29;6.13;;;5.40;;
48516;SDS011;34310;51.904;4.256;2023-05-10T02:58:01;7.57;;;5.88;;
48516;SDS011;34310;51.904;4.256;2023-05-10T03:00:29;6.40;;;5.43;;
48516;SDS011;34310;51.904;4.256;2023-05-10T03:02:57;6.68;;;5.95;;
48516;SDS011;34310;51.904;4.256;2023-05-10T03:05:24;7.47;;;6.32;;
48516;SDS011;34310;51.904;4.256;2023-05-10T03:07:52;8.38;;;6.18;;
48516;SDS011;34310;51.904;4.256;2023-05-10T03:10:21;6.63;;;5.88;;
48516;SDS011;34310;51.904;4.256;2023-05-10T03:16:01;7.78;;;6.20;;
48516;SDS011;34310;51.904;4.256;2023-05-10T03:18:37;7.45;;;6.35;;
48516;SDS011;34310;51.904;4.256;2023-05-10T03:21:11;9.43;;;6.03;;
48516;SDS011;34310;51.904;4.256;2023-05-10T03:23:46;7.85;;;6.47;;
48516;SDS011;34310;51.904;4.256;2023-05-10T03:26:24;8.00;;;6.32;;
48516;SDS011;34310;51.904;4.256;2023-05-10T03:28:53;6.85;;;5.97;;
48516;SDS011;34310;51.904;4.256;2023-05-10T03:31:21;8.43;;;6.28;;
48516;SDS011;34310;51.904;4.256;2023-05-10T03:33:50;8.10;;;6.60;;
48516;SDS011;34310;51.904;4.256;2023-05-10T03:36:19;8.50;;;6.75;;
48516;SDS011;34310;51.904;4.256;2023-05-10T03:38:47;8.90;;;7.00;;
48516;SDS011;34310;51.904;4.256;2023-05-10T03:41:14;8.45;;;6.95;;
48516;SDS011;34310;51.904;4.256;2023-05-10T03:43:41;8.48;;;6.63;;
48516;SDS011;34310;51.904;4.256;2023-05-10T03:46:09;7.32;;;6.30;;
48516;SDS011;34310;51.904;4.256;2023-05-10T03:48:36;7.75;;;6.45;;
48516;SDS011;34310;51.904;4.256;2023-05-10T03:51:04;7.32;;;6.60;;
48516;SDS011;34310;51.904;4.256;2023-05-10T03:53:31;7.65;;;6.85;;
48516;SDS011;34310;51.904;4.256;2023-05-10T03:55:58;7.88;;;6.80;;
48516;SDS011;34310;51.904;4.256;2023-05-10T03:58:26;7.80;;;6.50;;
48516;SDS011;34310;51.904;4.256;2023-05-10T04:00:53;7.47;;;6.70;;
48516;SDS011;34310;51.904;4.256;2023-05-10T04:03:21;7.35;;;6.65;;
48516;SDS011;34310;51.904;4.256;2023-05-10T04:05:49;8.25;;;7.05;;
48516;SDS011;34310;51.904;4.256;2023-05-10T04:08:28;8.25;;;7.18;;
48516;SDS011;34310;51.904;4.256;2023-05-10T04:11:08;7.57;;;6.78;;
48516;SDS011;34310;51.904;4.256;2023-05-10T04:13:36;6.82;;;6.13;;
48516;SDS011;34310;51.904;4.256;2023-05-10T04:16:04;7.28;;;6.35;;
48516;SDS011;34310;51.904;4.256;2023-05-10T04:18:32;7.68;;;6.88;;
48516;SDS011;34310;51.904;4.256;2023-05-10T04:20:59;7.50;;;6.80;;
48516;SDS011;34310;51.904;4.256;2023-05-10T04:23:27;7.55;;;6.78;;
48516;SDS011;34310;51.904;4.256;2023-05-10T04:26:01;8.30;;;7.07;;
48516;SDS011;34310;51.904;4.256;2023-05-10T04:28:28;6.93;;;6.22;;
48516;SDS011;34310;51.904;4.256;2023-05-10T04:31:05;8.43;;;6.35;;
48516;SDS011;34310;51.904;4.256;2023-05-10T04:33:33;6.78;;;6.07;;
48516;SDS011;34310;51.904;4.256;2023-05-10T04:36:02;7.00;;;6.22;;
48516;SDS011;34310;51.904;4.256;2023-05-10T04:38:29;6.45;;;5.75;;
48516;SDS011;34310;51.904;4.256;2023-05-10T04:41:03;8.40;;;6.20;;
48516;SDS011;34310;51.904;4.256;2023-05-10T04:43:35;7.13;;;5.95;;
48516;SDS011;34310;51.904;4.256;2023-05-10T04:46:02;7.60;;;5.90;;
48516;SDS011;34310;51.904;4.256;2023-05-10T04:48:31;7.70;;;5.90;;
48516;SDS011;34310;51.904;4.256;2023-05-10T04:50:58;7.10;;;6.40;;
48516;SDS011;34310;51.904;4.256;2023-05-10T04:53:25;7.15;;;6.20;;
48516;SDS011;34310;51.904;4.256;2023-05-10T04:55:53;7.05;;;5.68;;
48516;SDS011;34310;51.904;4.256;2023-05-10T04:58:20;5.95;;;5.45;;
48516;SDS011;34310;51.904;4.256;2023-05-10T05:00:48;6.68;;;5.97;;
48516;SDS011;34310;51.904;4.256;2023-05-10T05:03:15;7.20;;;5.57;;
48516;SDS011;34310;51.904;4.256;2023-05-10T05:05:43;6.25;;;5.47;;
48516;SDS011;34310;51.904;4.256;2023-05-10T05:08:11;6.78;;;5.45;;
48516;SDS011;34310;51.904;4.256;2023-05-10T05:10:38;6.35;;;5.57;;
48516;SDS011;34310;51.904;4.256;2023-05-10T05:13:06;5.93;;;5.32;;
48516;SDS011;34310;51.904;4.256;2023-05-10T05:15:33;6.00;;;5.40;;
48516;SDS011;34310;51.904;4.256;2023-05-10T05:18:01;6.53;;;5.43;;
48516;SDS011;34310;51.904;4.256;2023-05-10T05:20:31;6.18;;;5.40;;
48516;SDS011;34310;51.904;4.256;2023-05-10T05:22:59;5.97;;;5.15;;
48516;SDS011;34310;51.904;4.256;2023-05-10T05:25:27;8.35;;;5.55;;
48516;SDS011;34310;51.904;4.256;2023-05-10T05:27:54;6.18;;;5.18;;
48516;SDS011;34310;51.904;4.256;2023-05-10T05:30:22;6.60;;;5.18;;
48516;SDS011;34310;51.904;4.256;2023-05-10T05:32:49;7.32;;;5.45;;
48516;SDS011;34310;51.904;4.256;2023-05-10T05:35:17;6.00;;;5.40;;
48516;SDS011;34310;51.904;4.256;2023-05-10T05:37:44;5.97;;;5.00;;
48516;SDS011;34310;51.904;4.256;2023-05-10T05:40:12;6.05;;;5.45;;
48516;SDS011;34310;51.904;4.256;2023-05-10T05:42:40;6.28;;;5.20;;
48516;SDS011;34310;51.904;4.256;2023-05-10T05:45:07;5.35;;;4.80;;
48516;SDS011;34310;51.904;4.256;2023-05-10T05:47:39;6.55;;;5.30;;
48516;SDS011;34310;51.904;4.256;2023-05-10T05:50:07;7.68;;;5.47;;
48516;SDS011;34310;51.904;4.256;2023-05-10T05:52:34;6.38;;;5.07;;
48516;SDS011;34310;51.904;4.256;2023-05-10T05:55:02;6.15;;;4.82;;
48516;SDS011;34310;51.904;4.256;2023-05-10T05:57:30;6.20;;;5.05;;
48516;SDS011;34310;51.904;4.256;2023-05-10T05:59:57;7.00;;;5.55;;
48516;SDS011;34310;51.904;4.256;2023-05-10T06:02:25;6.35;;;5.22;;
48516;SDS011;34310;51.904;4.256;2023-05-10T06:04:52;7.03;;;5.47;;
48516;SDS011;34310;51.904;4.256;2023-05-10T06:07:20;6.07;;;4.85;;
48516;SDS011;34310;51.904;4.256;2023-05-10T06:09:47;7.40;;;5.15;;
48516;SDS011;34310;51.904;4.256;2023-05-10T06:12:15;6.88;;;5.15;;
48516;SDS011;34310;51.904;4.256;2023-05-10T06:14:42;5.35;;;4.85;;
48516;SDS011;34310;51.904;4.256;2023-05-10T06:17:09;5.10;;;4.60;;
48516;SDS011;34310;51.904;4.256;2023-05-10T06:19:37;6.00;;;4.78;;
48516;SDS011;34310;51.904;4.256;2023-05-10T06:22:04;6.28;;;4.93;;
48516;SDS011;34310;51.904;4.256;2023-05-10T06:24:32;5.93;;;4.65;;
48516;SDS011;34310;51.904;4.256;2023-05-10T06:26:59;5.88;;;5.05;;
48516;SDS011;34310;51.904;4.256;2023-05-10T06:29:26;5.78;;;4.70;;
48516;SDS011;34310;51.904;4.256;2023-05-10T06:31:53;4.80;;;4.20;;
48516;SDS011;34310;51.904;4.256;2023-05-10T06:34:21;7.05;;;4.65;;
48516;SDS011;34310;51.904;4.256;2023-05-10T06:36:48;5.88;;;4.57;;
48516;SDS011;34310;51.904;4.256;2023-05-10T06:39:15;5.28;;;4.57;;
48516;SDS011;34310;51.904;4.256;2023-05-10T06:41:43;5.53;;;4.25;;
48516;SDS011;34310;51.904;4.256;2023-05-10T06:44:10;5.07;;;4.53;;
48516;SDS011;34310;51.904;4.256;2023-05-10T06:46:38;5.72;;;4.63;;
48516;SDS011;34310;51.904;4.256;2023-05-10T06:49:05;5.47;;;4.47;;
48516;SDS011;34310;51.904;4.256;2023-05-10T06:51:32;4.65;;;4.25;;
48516;SDS011;34310;51.904;4.256;2023-05-10T06:54:00;5.78;;;4.38;;
48516;SDS011;34310;51.904;4.256;2023-05-10T06:56:28;6.53;;;3.78;;
48516;SDS011;34310;51.904;4.256;2023-05-10T06:58:55;5.35;;;4.30;;
48516;SDS011;34310;51.904;4.256;2023-05-10T07:01:22;4.82;;;4.10;;
48516;SDS011;34310;51.904;4.256;2023-05-10T07:03:49;5.22;;;3.60;;
48516;SDS011;34310;51.904;4.256;2023-05-10T07:06:17;4.88;;;4.07;;
48516;SDS011;34310;51.904;4.256;2023-05-10T07:08:58;4.65;;;3.53;;
48516;SDS011;34310;51.904;4.256;2023-05-10T07:11:26;4.75;;;3.92;;
48516;SDS011;34310;51.904;4.256;2023-05-10T07:13:53;5.25;;;3.88;;
48516;SDS011;34310;51.904;4.256;2023-05-10T07:16:21;4.18;;;3.40;;
48516;SDS011;34310;51.904;4.256;2023-05-10T07:18:48;4.20;;;3.70;;
48516;SDS011;34310;51.904;4.256;2023-05-10T07:21:16;4.38;;;3.63;;
48516;SDS011;34310;51.904;4.256;2023-05-10T07:23:44;4.47;;;3.92;;
48516;SDS011;34310;51.904;4.256;2023-05-10T07:26:11;4.00;;;3.45;;
48516;SDS011;34310;51.904;4.256;2023-05-10T07:28:38;4.35;;;3.67;;
48516;SDS011;34310;51.904;4.256;2023-05-10T07:31:06;4.05;;;3.63;;
48516;SDS011;34310;51.904;4.256;2023-05-10T07:33:33;3.90;;;3.53;;
48516;SDS011;34310;51.904;4.256;2023-05-10T07:36:01;4.82;;;3.95;;
48516;SDS011;34310;51.904;4.256;2023-05-10T07:38:28;6.18;;;3.63;;
48516;SDS011;34310;51.904;4.256;2023-05-10T07:40:55;3.95;;;3.55;;
48516;SDS011;34310;51.904;4.256;2023-05-10T07:43:23;3.53;;;3.22;;
48516;SDS011;34310;51.904;4.256;2023-05-10T07:45:50;4.15;;;3.40;;
48516;SDS011;34310;51.904;4.256;2023-05-10T07:48:21;5.63;;;3.45;;
48516;SDS011;34310;51.904;4.256;2023-05-10T07:50:48;5.15;;;4.03;;
48516;SDS011;34310;51.904;4.256;2023-05-10T07:53:16;4.65;;;3.90;;
48516;SDS011;34310;51.904;4.256;2023-05-10T07:55:49;4.88;;;3.85;;
48516;SDS011;34310;51.904;4.256;2023-05-10T07:58:17;4.57;;;4.03;;
48516;SDS011;34310;51.904;4.256;2023-05-10T08:00:45;4.07;;;3.42;;
48516;SDS011;34310;51.904;4.256;2023-05-10T08:03:12;3.80;;;3.38;;
48516;SDS011;34310;51.904;4.256;2023-05-10T08:05:40;4.15;;;3.70;;
48516;SDS011;34310;51.904;4.256;2023-05-10T08:08:07;5.13;;;3.85;;
48516;SDS011;34310;51.904;4.256;2023-05-10T08:10:34;5.47;;;4.20;;
48516;SDS011;34310;51.904;4.256;2023-05-10T08:13:02;4.35;;;3.95;;
48516;SDS011;34310;51.904;4.256;2023-05-10T08:15:29;5.05;;;4.10;;
48516;SDS011;34310;51.904;4.256;2023-05-10T08:17:56;4.35;;;3.88;;
48516;SDS011;34310;51.904;4.256;2023-05-10T08:20:24;4.03;;;3.55;;
48516;SDS011;34310;51.904;4.256;2023-05-10T08:22:51;4.90;;;3.97;;
48516;SDS011;34310;51.904;4.256;2023-05-10T08:25:19;4.35;;;3.70;;
48516;SDS011;34310;51.904;4.256;2023-05-10T08:27:46;4.30;;;3.90;;
48516;SDS011;34310;51.904;4.256;2023-05-10T08:30:14;4.88;;;4.07;;
48516;SDS011;34310;51.904;4.256;2023-05-10T08:32:41;4.55;;;3.70;;
48516;SDS011;34310;51.904;4.256;2023-05-10T08:35:08;3.80;;;3.20;;
48516;SDS011;34310;51.904;4.256;2023-05-10T08:37:36;4.65;;;3.65;;
48516;SDS011;34310;51.904;4.256;2023-05-10T08:40:03;3.53;;;3.22;;
48516;SDS011;34310;51.904;4.256;2023-05-10T08:42:31;5.03;;;3.33;;
48516;SDS011;34310;51.904;4.256;2023-05-10T08:45:04;3.33;;;3.03;;
48516;SDS011;34310;51.904;4.256;2023-05-10T08:47:34;3.75;;;3.15;;
48516;SDS011;34310;51.904;4.256;2023-05-10T08:50:04;3.28;;;2.83;;
48516;SDS011;34310;51.904;4.256;2023-05-10T08:52:32;3.65;;;3.00;;
48516;SDS011;34310;51.904;4.256;2023-05-10T08:55:04;3.50;;;3.20;;
48516;SDS011;34310;51.904;4.256;2023-05-10T08:57:32;3.78;;;3.38;;
48516;SDS011;34310;51.904;4.256;2023-05-10T09:00:00;3.72;;;3.15;;
48516;SDS011;34310;51.904;4.256;2023-05-10T09:02:28;3.28;;;2.97;;
48516;SDS011;34310;51.904;4.256;2023-05-10T09:04:56;3.30;;;2.90;;
48516;SDS011;34310;51.904;4.256;2023-05-10T09:07:23;4.05;;;3.00;;
48516;SDS011;34310;51.904;4.256;2023-05-10T09:09:51;2.75;;;2.55;;
48516;SDS011;34310;51.904;4.256;2023-05-10T09:12:20;4.65;;;3.08;;
48516;SDS011;34310;51.904;4.256;2023-05-10T09:14:47;3.50;;;3.20;;
48516;SDS011;34310;51.904;4.256;2023-05-10T09:17:16;3.45;;;3.10;;
48516;SDS011;34310;51.904;4.256;2023-05-10T09:19:44;3.35;;;3.05;;
48516;SDS011;34310;51.904;4.256;2023-05-10T09:22:12;3.20;;;2.90;;
48516;SDS011;34310;51.904;4.256;2023-05-10T09:24:39;3.45;;;3.10;;
48516;SDS011;34310;51.904;4.256;2023-05-10T09:27:11;3.25;;;2.95;;
48516;SDS011;34310;51.904;4.256;2023-05-10T09:29:39;4.32;;;2.78;;
48516;SDS011;34310;51.904;4.256;2023-05-10T09:32:08;3.20;;;2.90;;
48516;SDS011;34310;51.904;4.256;2023-05-10T09:34:35;3.60;;;2.58;;
48516;SDS011;34310;51.904;4.256;2023-05-10T09:37:06;2.90;;;2.70;;
48516;SDS011;34310;51.904;4.256;2023-05-10T09:39:35;3.40;;;3.10;;
48516;SDS011;34310;51.904;4.256;2023-05-10T09:42:07;4.38;;;3.08;;
48516;SDS011;34310;51.904;4.256;2023-05-10T09:44:35;3.38;;;2.67;;
48516;SDS011;34310;51.904;4.256;2023-05-10T09:47:04;4.60;;;2.70;;
48516;SDS011;34310;51.904;4.256;2023-05-10T09:49:31;3.15;;;2.70;;
48516;SDS011;34310;51.904;4.256;2023-05-10T09:52:03;3.03;;;2.50;;
48516;SDS011;34310;51.904;4.256;2023-05-10T09:57:02;3.63;;;2.72;;
48516;SDS011;34310;51.904;4.256;2023-05-10T09:59:29;2.83;;;2.40;;
48516;SDS011;34310;51.904;4.256;2023-05-10T10:01:59;2.83;;;2.60;;
48516;SDS011;34310;51.904;4.256;2023-05-10T10:04:27;2.78;;;2.50;;
48516;SDS011;34310;51.904;4.256;2023-05-10T10:06:58;2.35;;;2.15;;
48516;SDS011;34310;51.904;4.256;2023-05-10T10:09:30;2.42;;;2.22;;
48516;SDS011;34310;51.904;4.256;2023-05-10T10:11:59;2.70;;;2.50;;
48516;SDS011;34310;51.904;4.256;2023-05-10T10:14:29;2.38;;;2.17;;
48516;SDS011;34310;51.904;4.256;2023-05-10T10:16:56;4.22;;;2.60;;
48516;SDS011;34310;51.904;4.256;2023-05-10T10:19:34;2.60;;;2.17;;
48516;SDS011;34310;51.904;4.256;2023-05-10T10:22:03;3.45;;;2.13;;
48516;SDS011;34310;51.904;4.256;2023-05-10T10:24:31;3.40;;;2.55;;
48516;SDS011;34310;51.904;4.256;2023-05-10T10:27:09;4.03;;;2.40;;
48516;SDS011;34310;51.904;4.256;2023-05-10T10:32:25;2.45;;;2.25;;
48516;SDS011;34310;51.904;4.256;2023-05-10T10:35:00;2.20;;;2.00;;
48516;SDS011;34310;51.904;4.256;2023-05-10T10:37:41;2.95;;;2.10;;
48516;SDS011;34310;51.904;4.256;2023-05-10T10:40:24;2.88;;;2.25;;
48516;SDS011;34310;51.904;4.256;2023-05-10T10:43:22;3.00;;;2.17;;
48516;SDS011;34310;51.904;4.256;2023-05-10T10:46:09;2.50;;;2.13;;
48516;SDS011;34310;51.904;4.256;2023-05-10T10:48:49;2.45;;;2.10;;
48516;SDS011;34310;51.904;4.256;2023-05-10T10:51:37;2.55;;;2.20;;
48516;SDS011;34310;51.904;4.256;2023-05-10T10:54:08;2.70;;;2.00;;
48516;SDS011;34310;51.904;4.256;2023-05-10T10:56:37;2.20;;;2.00;;
48516;SDS011;34310;51.904;4.256;2023-05-10T10:59:04;2.88;;;2.03;;
48516;SDS011;34310;51.904;4.256;2023-05-10T11:01:32;2.78;;;2.00;;
48516;SDS011;34310;51.904;4.256;2023-05-10T11:06:32;2.55;;;2.17;;
48516;SDS011;34310;51.904;4.256;2023-05-10T11:09:10;2.08;;;1.80;;
48516;SDS011;34310;51.904;4.256;2023-05-10T11:11:51;2.40;;;1.98;;
48516;SDS011;34310;51.904;4.256;2023-05-10T11:14:21;2.95;;;2.25;;
48516;SDS011;34310;51.904;4.256;2023-05-10T11:16:49;2.03;;;1.83;;
48516;SDS011;34310;51.904;4.256;2023-05-10T11:19:17;2.45;;;2.20;;
48516;SDS011;34310;51.904;4.256;2023-05-10T11:24:31;2.00;;;1.88;;
48516;SDS011;34310;51.904;4.256;2023-05-10T11:26:59;5.00;;;2.25;;
48516;SDS011;34310;51.904;4.256;2023-05-10T11:29:27;6.03;;;2.75;;
48516;SDS011;34310;51.904;4.256;2023-05-10T11:31:56;5.32;;;2.30;;
48516;SDS011;34310;51.904;4.256;2023-05-10T11:34:29;3.72;;;2.10;;
48516;SDS011;34310;51.904;4.256;2023-05-10T11:37:00;3.58;;;2.20;;
48516;SDS011;34310;51.904;4.256;2023-05-10T11:39:28;3.67;;;2.22;;
48516;SDS011;34310;51.904;4.256;2023-05-10T11:41:57;4.90;;;2.10;;
48516;SDS011;34310;51.904;4.256;2023-05-10T11:44:31;3.15;;;2.00;;
48516;SDS011;34310;51.904;4.256;2023-05-10T11:46:59;3.40;;;1.95;;
48516;SDS011;34310;51.904;4.256;2023-05-10T11:49:27;4.93;;;1.92;;
48516;SDS011;34310;51.904;4.256;2023-05-10T11:52:07;2.90;;;2.22;;
48516;SDS011;34310;51.904;4.256;2023-05-10T11:54:37;4.60;;;2.17;;
48516;SDS011;34310;51.904;4.256;2023-05-10T11:57:10;3.78;;;2.38;;
48516;SDS011;34310;51.904;4.256;2023-05-10T11:59:38;4.30;;;2.60;;
48516;SDS011;34310;51.904;4.256;2023-05-10T12:02:08;2.50;;;2.00;;
48516;SDS011;34310;51.904;4.256;2023-05-10T12:04:36;3.22;;;2.17;;
48516;SDS011;34310;51.904;4.256;2023-05-10T12:07:04;3.25;;;2.05;;
48516;SDS011;34310;51.904;4.256;2023-05-10T12:09:31;4.07;;;2.28;;
48516;SDS011;34310;51.904;4.256;2023-05-10T12:12:09;3.63;;;2.08;;
48516;SDS011;34310;51.904;4.256;2023-05-10T12:14:41;3.78;;;2.10;;
48516;SDS011;34310;51.904;4.256;2023-05-10T12:17:12;2.50;;;2.00;;
48516;SDS011;34310;51.904;4.256;2023-05-10T12:19:41;3.45;;;1.90;;
48516;SDS011;34310;51.904;4.256;2023-05-10T12:22:09;2.75;;;2.38;;
48516;SDS011;34310;51.904;4.256;2023-05-10T12:24:37;2.70;;;2.30;;
48516;SDS011;34310;51.904;4.256;2023-05-10T12:27:05;3.05;;;2.25;;
48516;SDS011;34310;51.904;4.256;2023-05-10T12:29:34;2.03;;;1.77;;
48516;SDS011;34310;51.904;4.256;2023-05-10T12:32:02;1.85;;;1.60;;
48516;SDS011;34310;51.904;4.256;2023-05-10T12:34:30;1.80;;;1.70;;
48516;SDS011;34310;51.904;4.256;2023-05-10T12:36:59;2.85;;;1.98;;
48516;SDS011;34310;51.904;4.256;2023-05-10T12:39:37;2.83;;;1.77;;
48516;SDS011;34310;51.904;4.256;2023-05-10T12:42:09;2.63;;;1.70;;
48516;SDS011;34310;51.904;4.256;2023-05-10T12:44:37;5.15;;;1.80;;
48516;SDS011;34310;51.904;4.256;2023-05-10T12:47:04;2.33;;;1.88;;
48516;SDS011;34310;51.904;4.256;2023-05-10T12:49:32;2.45;;;2.00;;
48516;SDS011;34310;51.904;4.256;2023-05-10T12:52:00;2.80;;;1.70;;
48516;SDS011;34310;51.904;4.256;2023-05-10T12:54:27;2.38;;;1.45;;
48516;SDS011;34310;51.904;4.256;2023-05-10T12:56:55;2.20;;;1.50;;
48516;SDS011;34310;51.904;4.256;2023-05-10T12:59:22;2.13;;;1.60;;
48516;SDS011;34310;51.904;4.256;2023-05-10T13:01:49;2.28;;;1.55;;
48516;SDS011;34310;51.904;4.256;2023-05-10T13:04:17;3.28;;;1.60;;
48516;SDS011;34310;51.904;4.256;2023-05-10T13:06:44;2.83;;;1.52;;
48516;SDS011;34310;51.904;4.256;2023-05-10T13:09:11;2.08;;;1.73;;
48516;SDS011;34310;51.904;4.256;2023-05-10T13:11:39;1.88;;;1.65;;
48516;SDS011;34310;51.904;4.256;2023-05-10T13:14:06;2.80;;;1.52;;
48516;SDS011;34310;51.904;4.256;2023-05-10T13:16:34;3.55;;;1.70;;
48516;SDS011;34310;51.904;4.256;2023-05-10T13:19:01;2.67;;;1.70;;
48516;SDS011;34310;51.904;4.256;2023-05-10T13:21:29;2.17;;;1.80;;
48516;SDS011;34310;51.904;4.256;2023-05-10T13:23:56;3.80;;;2.03;;
48516;SDS011;34310;51.904;4.256;2023-05-10T13:26:24;2.63;;;1.70;;
48516;SDS011;34310;51.904;4.256;2023-05-10T13:28:51;2.58;;;1.50;;
48516;SDS011;34310;51.904;4.256;2023-05-10T13:31:19;3.63;;;1.67;;
48516;SDS011;34310;51.904;4.256;2023-05-10T13:33:46;2.78;;;1.58;;
48516;SDS011;34310;51.904;4.256;2023-05-10T13:36:14;2.05;;;1.63;;
48516;SDS011;34310;51.904;4.256;2023-05-10T13:38:41;2.00;;;1.70;;
48516;SDS011;34310;51.904;4.256;2023-05-10T13:41:08;2.67;;;1.73;;
48516;SDS011;34310;51.904;4.256;2023-05-10T13:43:36;2.42;;;1.73;;
48516;SDS011;34310;51.904;4.256;2023-05-10T13:46:03;3.40;;;1.80;;
48516;SDS011;34310;51.904;4.256;2023-05-10T13:48:31;1.88;;;1.60;;
48516;SDS011;34310;51.904;4.256;2023-05-10T13:50:58;2.75;;;1.90;;
48516;SDS011;34310;51.904;4.256;2023-05-10T13:53:25;2.10;;;1.88;;
48516;SDS011;34310;51.904;4.256;2023-05-10T13:55:53;4.32;;;2.20;;
48516;SDS011;34310;51.904;4.256;2023-05-10T13:58:20;2.15;;;1.80;;
48516;SDS011;34310;51.904;4.256;2023-05-10T14:00:47;2.50;;;1.70;;
48516;SDS011;34310;51.904;4.256;2023-05-10T14:03:15;2.08;;;1.70;;
48516;SDS011;34310;51.904;4.256;2023-05-10T14:05:43;2.97;;;1.80;;
48516;SDS011;34310;51.904;4.256;2023-05-10T14:08:11;2.70;;;1.80;;
48516;SDS011;34310;51.904;4.256;2023-05-10T14:10:39;2.15;;;1.70;;
48516;SDS011;34310;51.904;4.256;2023-05-10T14:13:06;1.73;;;1.63;;
48516;SDS011;34310;51.904;4.256;2023-05-10T14:15:34;2.08;;;1.67;;
48516;SDS011;34310;51.904;4.256;2023-05-10T14:18:01;2.42;;;2.00;;
48516;SDS011;34310;51.904;4.256;2023-05-10T14:20:28;2.45;;;1.75;;
48516;SDS011;34310;51.904;4.256;2023-05-10T14:22:56;1.90;;;1.80;;
48516;SDS011;34310;51.904;4.256;2023-05-10T14:25:23;2.20;;;1.80;;
48516;SDS011;34310;51.904;4.256;2023-05-10T14:27:51;2.88;;;2.15;;
48516;SDS011;34310;51.904;4.256;2023-05-10T14:30:20;2.53;;;1.75;;
48516;SDS011;34310;51.904;4.256;2023-05-10T14:32:48;2.33;;;1.98;;
48516;SDS011;34310;51.904;4.256;2023-05-10T14:35:15;1.92;;;1.83;;
48516;SDS011;34310;51.904;4.256;2023-05-10T14:37:45;2.40;;;1.88;;
48516;SDS011;34310;51.904;4.256;2023-05-10T14:40:12;2.20;;;1.98;;
48516;SDS011;34310;51.904;4.256;2023-05-10T14:42:41;2.28;;;1.88;;
48516;SDS011;34310;51.904;4.256;2023-05-10T14:45:09;1.75;;;1.65;;
48516;SDS011;34310;51.904;4.256;2023-05-10T14:47:38;2.38;;;1.80;;
48516;SDS011;34310;51.904;4.256;2023-05-10T14:50:05;2.30;;;2.10;;
48516;SDS011;34310;51.904;4.256;2023-05-10T14:52:33;1.95;;;1.80;;
48516;SDS011;34310;51.904;4.256;2023-05-10T14:55:01;2.10;;;1.90;;
48516;SDS011;34310;51.904;4.256;2023-05-10T14:57:28;2.45;;;1.95;;
48516;SDS011;34310;51.904;4.256;2023-05-10T14:59:55;2.13;;;1.92;;
48516;SDS011;34310;51.904;4.256;2023-05-10T15:02:23;2.28;;;1.90;;
48516;SDS011;34310;51.904;4.256;2023-05-10T15:04:51;2.20;;;2.00;;
48516;SDS011;34310;51.904;4.256;2023-05-10T15:07:19;2.00;;;1.80;;
48516;SDS011;34310;51.904;4.256;2023-05-10T15:09:47;2.05;;;1.85;;
48516;SDS011;34310;51.904;4.256;2023-05-10T15:12:14;2.13;;;1.90;;
48516;SDS011;34310;51.904;4.256;2023-05-10T15:14:41;2.15;;;1.95;;
48516;SDS011;34310;51.904;4.256;2023-05-10T15:17:09;2.17;;;2.00;;
48516;SDS011;34310;51.904;4.256;2023-05-10T15:19:36;2.92;;;2.03;;
48516;SDS011;34310;51.904;4.256;2023-05-10T15:22:04;2.78;;;1.48;;
48516;SDS011;34310;51.904;4.256;2023-05-10T15:24:31;3.42;;;1.88;;
48516;SDS011;34310;51.904;4.256;2023-05-10T15:26:58;2.75;;;1.90;;
48516;SDS011;34310;51.904;4.256;2023-05-10T15:29:26;2.15;;;1.95;;